sensor_id;sensor_type;location;lat;lon;timestamp;temperature;humidity
35894;DHT22;21994;48.204;16.516;2023-11-22T00:01:11;8.10;99.90
35894;DHT22;21994;48.204;16.516;2023-11-22T00:03:38;8.00;99.90
35894;DHT22;21994;48.204;16.516;2023-11-22T00:06:05;8.00;99.90
35894;DHT22;21994;48.204;16.516;2023-11-22T00:08:33;8.00;99.90
35894;DHT22;21994;48.204;16.516;2023-11-22T00:10:59;7.90;99.90
35894;DHT22;21994;48.204;16.516;2023-11-22T00:13:25;7.90;99.90
35894;DHT22;21994;48.204;16.516;2023-11-22T00:15:51;7.90;99.90
35894;DHT22;21994;48.204;16.516;2023-11-22T00:18:17;7.90;99.90
35894;DHT22;21994;48.204;16.516;2023-11-22T00:20:43;7.90;99.90
35894;DHT22;21994;48.204;16.516;2023-11-22T00:23:09;8.00;99.90
35894;DHT22;21994;48.204;16.516;2023-11-22T00:25:35;8.00;99.90
35894;DHT22;21994;48.204;16.516;2023-11-22T00:28:01;7.90;99.90
35894;DHT22;21994;48.204;16.516;2023-11-22T00:30:28;7.90;99.90
35894;DHT22;21994;48.204;16.516;2023-11-22T00:32:53;7.90;99.90
35894;DHT22;21994;48.204;16.516;2023-11-22T00:35:19;7.80;99.90
35894;DHT22;21994;48.204;16.516;2023-11-22T00:37:45;7.80;99.90
35894;DHT22;21994;48.204;16.516;2023-11-22T00:40:12;7.80;99.90
35894;DHT22;21994;48.204;16.516;2023-11-22T00:42:38;7.70;99.90
35894;DHT22;21994;48.204;16.516;2023-11-22T00:45:07;7.60;99.90
35894;DHT22;21994;48.204;16.516;2023-11-22T00:47:35;7.50;99.90
35894;DHT22;21994;48.204;16.516;2023-11-22T00:50:02;7.40;99.90
35894;DHT22;21994;48.204;16.516;2023-11-22T00:52:30;7.40;99.90
35894;DHT22;21994;48.204;16.516;2023-11-22T00:54:57;7.30;99.90
35894;DHT22;21994;48.204;16.516;2023-11-22T00:57:23;7.40;99.90
35894;DHT22;21994;48.204;16.516;2023-11-22T00:59:49;7.40;99.90
35894;DHT22;21994;48.204;16.516;2023-11-22T01:02:15;7.50;99.90
35894;DHT22;21994;48.204;16.516;2023-11-22T01:04:42;7.50;99.90
35894;DHT22;21994;48.204;16.516;2023-11-22T01:07:07;7.50;99.90
35894;DHT22;21994;48.204;16.516;2023-11-22T01:09:33;7.50;99.90
35894;DHT22;21994;48.204;16.516;2023-11-22T01:12:00;7.50;99.90
35894;DHT22;21994;48.204;16.516;2023-11-22T01:14:26;7.50;99.90
35894;DHT22;21994;48.204;16.516;2023-11-22T01:16:53;7.50;99.90
35894;DHT22;21994;48.204;16.516;2023-11-22T01:19:22;7.50;99.90
35894;DHT22;21994;48.204;16.516;2023-11-22T01:21:48;7.50;99.90
35894;DHT22;21994;48.204;16.516;2023-11-22T01:24:14;7.50;99.90
35894;DHT22;21994;48.204;16.516;2023-11-22T01:26:40;7.50;99.90
35894;DHT22;21994;48.204;16.516;2023-11-22T01:29:06;7.50;99.90
35894;DHT22;21994;48.204;16.516;2023-11-22T01:31:32;7.40;99.90
35894;DHT22;21994;48.204;16.516;2023-11-22T01:34:01;7.30;99.90
35894;DHT22;21994;48.204;16.516;2023-11-22T01:36:27;7.30;99.90
35894;DHT22;21994;48.204;16.516;2023-11-22T01:38:54;7.30;99.90
35894;DHT22;21994;48.204;16.516;2023-11-22T01:41:21;7.20;99.90
35894;DHT22;21994;48.204;16.516;2023-11-22T01:43:47;7.20;99.90
35894;DHT22;21994;48.204;16.516;2023-11-22T01:46:23;7.10;99.90
35894;DHT22;21994;48.204;16.516;2023-11-22T01:48:51;7.10;99.90
35894;DHT22;21994;48.204;16.516;2023-11-22T01:51:23;7.20;99.90
35894;DHT22;21994;48.204;16.516;2023-11-22T01:53:52;7.10;99.90
35894;DHT22;21994;48.204;16.516;2023-11-22T01:56:20;7.10;99.90
35894;DHT22;21994;48.204;16.516;2023-11-22T01:58:47;7.20;99.90
35894;DHT22;21994;48.204;16.516;2023-11-22T02:01:15;7.10;99.90
35894;DHT22;21994;48.204;16.516;2023-11-22T02:03:41;7.10;99.90
35894;DHT22;21994;48.204;16.516;2023-11-22T02:06:08;7.10;99.90
35894;DHT22;21994;48.204;16.516;2023-11-22T02:08:37;7.10;99.90
35894;DHT22;21994;48.204;16.516;2023-11-22T02:11:04;7.10;99.90
35894;DHT22;21994;48.204;16.516;2023-11-22T02:13:31;7.00;99.90
35894;DHT22;21994;48.204;16.516;2023-11-22T02:15:57;7.10;99.90
35894;DHT22;21994;48.204;16.516;2023-11-22T02:18:28;7.10;99.90
35894;DHT22;21994;48.204;16.516;2023-11-22T02:20:54;7.00;99.90
35894;DHT22;21994;48.204;16.516;2023-11-22T02:23:20;6.90;99.90
35894;DHT22;21994;48.204;16.516;2023-11-22T02:25:47;7.00;99.90
35894;DHT22;21994;48.204;16.516;2023-11-22T02:28:14;6.90;99.90
35894;DHT22;21994;48.204;16.516;2023-11-22T02:30:40;6.90;99.90
35894;DHT22;21994;48.204;16.516;2023-11-22T02:33:07;6.80;99.90
35894;DHT22;21994;48.204;16.516;2023-11-22T02:35:33;6.80;99.90
35894;DHT22;21994;48.204;16.516;2023-11-22T02:37:59;6.80;99.90
35894;DHT22;21994;48.204;16.516;2023-11-22T02:40:26;6.80;99.90
35894;DHT22;21994;48.204;16.516;2023-11-22T02:42:54;6.70;99.90
35894;DHT22;21994;48.204;16.516;2023-11-22T02:45:28;6.70;99.90
35894;DHT22;21994;48.204;16.516;2023-11-22T02:47:54;6.60;99.90
35894;DHT22;21994;48.204;16.516;2023-11-22T02:50:20;6.60;99.90
35894;DHT22;21994;48.204;16.516;2023-11-22T02:52:46;6.50;99.90
35894;DHT22;21994;48.204;16.516;2023-11-22T02:55:12;6.50;99.90
35894;DHT22;21994;48.204;16.516;2023-11-22T02:57:40;6.60;99.90
35894;DHT22;21994;48.204;16.516;2023-11-22T03:00:10;6.50;99.90
35894;DHT22;21994;48.204;16.516;2023-11-22T03:02:40;6.50;99.90
35894;DHT22;21994;48.204;16.516;2023-11-22T03:05:10;6.50;99.90
35894;DHT22;21994;48.204;16.516;2023-11-22T03:07:38;6.50;99.90
35894;DHT22;21994;48.204;16.516;2023-11-22T03:10:04;6.50;99.90
35894;DHT22;21994;48.204;16.516;2023-11-22T03:12:36;6.60;99.90
35894;DHT22;21994;48.204;16.516;2023-11-22T03:15:02;6.50;99.90
35894;DHT22;21994;48.204;16.516;2023-11-22T03:17:28;6.60;99.90
35894;DHT22;21994;48.204;16.516;2023-11-22T03:19:55;6.50;99.90
35894;DHT22;21994;48.204;16.516;2023-11-22T03:22:28;6.50;99.90
35894;DHT22;21994;48.204;16.516;2023-11-22T03:24:59;6.50;99.90
35894;DHT22;21994;48.204;16.516;2023-11-22T03:27:25;6.50;99.90
35894;DHT22;21994;48.204;16.516;2023-11-22T03:29:51;6.40;99.90
35894;DHT22;21994;48.204;16.516;2023-11-22T03:32:18;6.30;99.90
35894;DHT22;21994;48.204;16.516;2023-11-22T03:34:44;6.30;99.90
35894;DHT22;21994;48.204;16.516;2023-11-22T03:37:09;6.20;99.90
35894;DHT22;21994;48.204;16.516;2023-11-22T03:39:36;6.30;99.90
35894;DHT22;21994;48.204;16.516;2023-11-22T03:42:02;6.30;99.90
35894;DHT22;21994;48.204;16.516;2023-11-22T03:44:28;6.30;99.90
35894;DHT22;21994;48.204;16.516;2023-11-22T03:46:55;6.20;99.90
35894;DHT22;21994;48.204;16.516;2023-11-22T03:49:21;6.20;99.90
35894;DHT22;21994;48.204;16.516;2023-11-22T03:51:47;6.20;99.90
35894;DHT22;21994;48.204;16.516;2023-11-22T03:54:13;6.20;99.90
35894;DHT22;21994;48.204;16.516;2023-11-22T03:56:39;6.20;99.90
35894;DHT22;21994;48.204;16.516;2023-11-22T03:59:05;6.10;99.90
35894;DHT22;21994;48.204;16.516;2023-11-22T04:01:31;6.20;99.90
35894;DHT22;21994;48.204;16.516;2023-11-22T04:03:57;6.10;99.90
35894;DHT22;21994;48.204;16.516;2023-11-22T04:06:23;6.20;99.90
35894;DHT22;21994;48.204;16.516;2023-11-22T04:08:49;6.20;99.90
35894;DHT22;21994;48.204;16.516;2023-11-22T04:11:16;6.10;99.90
35894;DHT22;21994;48.204;16.516;2023-11-22T04:13:43;6.10;99.90
35894;DHT22;21994;48.204;16.516;2023-11-22T04:16:10;6.00;99.90
35894;DHT22;21994;48.204;16.516;2023-11-22T04:18:41;5.90;99.90
35894;DHT22;21994;48.204;16.516;2023-11-22T04:21:08;5.90;99.90
35894;DHT22;21994;48.204;16.516;2023-11-22T04:23:35;5.90;99.90
35894;DHT22;21994;48.204;16.516;2023-11-22T04:26:02;5.80;99.90
35894;DHT22;21994;48.204;16.516;2023-11-22T04:28:29;5.80;99.90
35894;DHT22;21994;48.204;16.516;2023-11-22T04:30:56;5.80;99.90
35894;DHT22;21994;48.204;16.516;2023-11-22T04:33:23;5.80;99.90
35894;DHT22;21994;48.204;16.516;2023-11-22T04:35:49;5.80;99.90
35894;DHT22;21994;48.204;16.516;2023-11-22T04:38:16;5.80;99.90
35894;DHT22;21994;48.204;16.516;2023-11-22T04:40:43;5.70;99.90
35894;DHT22;21994;48.204;16.516;2023-11-22T04:43:09;5.70;99.90
35894;DHT22;21994;48.204;16.516;2023-11-22T04:45:36;5.70;99.90
35894;DHT22;21994;48.204;16.516;2023-11-22T04:48:02;5.70;99.90
35894;DHT22;21994;48.204;16.516;2023-11-22T04:50:29;5.70;99.90
35894;DHT22;21994;48.204;16.516;2023-11-22T04:52:57;5.60;99.90
35894;DHT22;21994;48.204;16.516;2023-11-22T04:55:23;5.60;99.90
35894;DHT22;21994;48.204;16.516;2023-11-22T04:57:49;5.50;99.90
35894;DHT22;21994;48.204;16.516;2023-11-22T05:00:15;5.50;99.90
35894;DHT22;21994;48.204;16.516;2023-11-22T05:02:43;5.50;99.90
35894;DHT22;21994;48.204;16.516;2023-11-22T05:05:08;5.50;99.90
35894;DHT22;21994;48.204;16.516;2023-11-22T05:07:38;5.50;99.90
35894;DHT22;21994;48.204;16.516;2023-11-22T05:10:05;5.40;99.90
35894;DHT22;21994;48.204;16.516;2023-11-22T05:12:31;5.40;99.90
35894;DHT22;21994;48.204;16.516;2023-11-22T05:14:58;5.30;99.90
35894;DHT22;21994;48.204;16.516;2023-11-22T05:17:24;5.30;99.90
35894;DHT22;21994;48.204;16.516;2023-11-22T05:19:50;5.30;99.90
35894;DHT22;21994;48.204;16.516;2023-11-22T05:22:19;5.30;99.90
35894;DHT22;21994;48.204;16.516;2023-11-22T05:24:48;5.20;99.90
35894;DHT22;21994;48.204;16.516;2023-11-22T05:27:14;5.20;99.90
35894;DHT22;21994;48.204;16.516;2023-11-22T05:29:40;5.20;99.90
35894;DHT22;21994;48.204;16.516;2023-11-22T05:32:06;5.20;99.90
35894;DHT22;21994;48.204;16.516;2023-11-22T05:34:32;5.10;99.90
35894;DHT22;21994;48.204;16.516;2023-11-22T05:36:58;5.10;99.90
35894;DHT22;21994;48.204;16.516;2023-11-22T05:39:24;5.10;99.90
35894;DHT22;21994;48.204;16.516;2023-11-22T05:41:52;5.10;99.90
35894;DHT22;21994;48.204;16.516;2023-11-22T05:44:19;5.00;99.90
35894;DHT22;21994;48.204;16.516;2023-11-22T05:46:45;5.00;99.90
35894;DHT22;21994;48.204;16.516;2023-11-22T05:49:11;4.90;99.90
35894;DHT22;21994;48.204;16.516;2023-11-22T05:51:37;4.90;99.90
35894;DHT22;21994;48.204;16.516;2023-11-22T05:54:03;4.90;99.90
35894;DHT22;21994;48.204;16.516;2023-11-22T05:56:30;4.90;99.90
35894;DHT22;21994;48.204;16.516;2023-11-22T05:58:57;4.80;99.90
35894;DHT22;21994;48.204;16.516;2023-11-22T06:01:23;4.70;99.90
35894;DHT22;21994;48.204;16.516;2023-11-22T06:03:49;4.70;99.90
35894;DHT22;21994;48.204;16.516;2023-11-22T06:06:15;4.70;99.90
35894;DHT22;21994;48.204;16.516;2023-11-22T06:08:41;4.80;99.90
35894;DHT22;21994;48.204;16.516;2023-11-22T06:11:08;4.80;99.90
35894;DHT22;21994;48.204;16.516;2023-11-22T06:13:33;4.70;99.90
35894;DHT22;21994;48.204;16.516;2023-11-22T06:16:00;4.70;99.90
35894;DHT22;21994;48.204;16.516;2023-11-22T06:18:25;4.70;99.90
35894;DHT22;21994;48.204;16.516;2023-11-22T06:20:56;4.70;99.90
35894;DHT22;21994;48.204;16.516;2023-11-22T06:23:22;4.70;99.90
35894;DHT22;21994;48.204;16.516;2023-11-22T06:25:48;4.60;99.90
35894;DHT22;21994;48.204;16.516;2023-11-22T06:28:15;4.60;99.90
35894;DHT22;21994;48.204;16.516;2023-11-22T06:30:41;4.60;99.90
35894;DHT22;21994;48.204;16.516;2023-11-22T06:33:07;4.60;99.90
35894;DHT22;21994;48.204;16.516;2023-11-22T06:35:33;4.60;99.90
35894;DHT22;21994;48.204;16.516;2023-11-22T06:37:59;4.60;99.90
35894;DHT22;21994;48.204;16.516;2023-11-22T06:40:25;4.60;99.90
35894;DHT22;21994;48.204;16.516;2023-11-22T06:42:51;4.60;99.90
35894;DHT22;21994;48.204;16.516;2023-11-22T06:45:17;4.70;99.90
35894;DHT22;21994;48.204;16.516;2023-11-22T06:47:43;4.60;99.90
35894;DHT22;21994;48.204;16.516;2023-11-22T06:50:10;4.60;99.90
35894;DHT22;21994;48.204;16.516;2023-11-22T06:52:38;4.70;99.90
35894;DHT22;21994;48.204;16.516;2023-11-22T06:55:05;4.60;99.90
35894;DHT22;21994;48.204;16.516;2023-11-22T06:57:34;4.60;99.90
35894;DHT22;21994;48.204;16.516;2023-11-22T07:00:00;4.70;99.90
35894;DHT22;21994;48.204;16.516;2023-11-22T07:02:33;4.70;99.90
35894;DHT22;21994;48.204;16.516;2023-11-22T07:05:02;4.70;99.90
35894;DHT22;21994;48.204;16.516;2023-11-22T07:07:29;4.70;99.90
35894;DHT22;21994;48.204;16.516;2023-11-22T07:09:55;4.70;99.90
35894;DHT22;21994;48.204;16.516;2023-11-22T07:12:25;4.70;99.90
35894;DHT22;21994;48.204;16.516;2023-11-22T07:14:52;4.70;99.90
35894;DHT22;21994;48.204;16.516;2023-11-22T07:17:18;4.70;99.90
35894;DHT22;21994;48.204;16.516;2023-11-22T07:19:44;4.70;99.90
35894;DHT22;21994;48.204;16.516;2023-11-22T07:22:17;4.80;99.90
35894;DHT22;21994;48.204;16.516;2023-11-22T07:24:45;4.90;99.90
35894;DHT22;21994;48.204;16.516;2023-11-22T07:27:13;4.80;99.90
35894;DHT22;21994;48.204;16.516;2023-11-22T07:29:41;4.90;99.90
35894;DHT22;21994;48.204;16.516;2023-11-22T07:32:07;4.80;99.90
35894;DHT22;21994;48.204;16.516;2023-11-22T07:34:38;4.80;99.90
35894;DHT22;21994;48.204;16.516;2023-11-22T07:37:08;4.90;99.90
35894;DHT22;21994;48.204;16.516;2023-11-22T07:39:35;4.90;99.90
35894;DHT22;21994;48.204;16.516;2023-11-22T07:42:02;5.00;99.90
35894;DHT22;21994;48.204;16.516;2023-11-22T07:44:28;5.10;99.90
35894;DHT22;21994;48.204;16.516;2023-11-22T07:46:59;5.10;99.90
35894;DHT22;21994;48.204;16.516;2023-11-22T07:49:26;5.20;99.90
35894;DHT22;21994;48.204;16.516;2023-11-22T07:51:52;5.30;99.90
35894;DHT22;21994;48.204;16.516;2023-11-22T07:54:21;5.30;99.90
35894;DHT22;21994;48.204;16.516;2023-11-22T07:56:51;5.30;99.90
35894;DHT22;21994;48.204;16.516;2023-11-22T07:59:20;5.20;99.90
35894;DHT22;21994;48.204;16.516;2023-11-22T08:01:46;5.20;99.90
35894;DHT22;21994;48.204;16.516;2023-11-22T08:04:16;5.30;99.90
35894;DHT22;21994;48.204;16.516;2023-11-22T08:06:42;5.40;99.90
35894;DHT22;21994;48.204;16.516;2023-11-22T08:09:08;5.30;99.90
35894;DHT22;21994;48.204;16.516;2023-11-22T08:11:35;5.30;99.90
35894;DHT22;21994;48.204;16.516;2023-11-22T08:14:05;5.40;99.90
35894;DHT22;21994;48.204;16.516;2023-11-22T08:16:31;5.40;99.90
35894;DHT22;21994;48.204;16.516;2023-11-22T08:18:58;5.40;99.90
35894;DHT22;21994;48.204;16.516;2023-11-22T08:21:23;5.50;99.90
35894;DHT22;21994;48.204;16.516;2023-11-22T08:23:50;5.50;99.90
35894;DHT22;21994;48.204;16.516;2023-11-22T08:26:16;5.40;99.90
35894;DHT22;21994;48.204;16.516;2023-11-22T08:28:42;5.30;99.90
35894;DHT22;21994;48.204;16.516;2023-11-22T08:31:08;5.20;99.90
35894;DHT22;21994;48.204;16.516;2023-11-22T08:33:38;5.00;99.90
35894;DHT22;21994;48.204;16.516;2023-11-22T08:36:07;4.90;99.90
35894;DHT22;21994;48.204;16.516;2023-11-22T08:38:35;5.00;99.90
35894;DHT22;21994;48.204;16.516;2023-11-22T08:41:05;5.00;99.90
35894;DHT22;21994;48.204;16.516;2023-11-22T08:43:32;4.90;99.90
35894;DHT22;21994;48.204;16.516;2023-11-22T08:46:01;4.90;99.90
35894;DHT22;21994;48.204;16.516;2023-11-22T08:48:30;4.80;99.90
35894;DHT22;21994;48.204;16.516;2023-11-22T08:50:56;4.80;99.90
35894;DHT22;21994;48.204;16.516;2023-11-22T08:53:22;4.70;99.90
35894;DHT22;21994;48.204;16.516;2023-11-22T08:55:48;4.80;99.90
35894;DHT22;21994;48.204;16.516;2023-11-22T08:58:15;4.80;99.90
35894;DHT22;21994;48.204;16.516;2023-11-22T09:00:41;4.80;99.90
35894;DHT22;21994;48.204;16.516;2023-11-22T09:03:13;4.70;99.90
35894;DHT22;21994;48.204;16.516;2023-11-22T09:05:39;4.60;99.90
35894;DHT22;21994;48.204;16.516;2023-11-22T09:08:06;4.60;99.90
35894;DHT22;21994;48.204;16.516;2023-11-22T09:10:32;4.70;99.90
35894;DHT22;21994;48.204;16.516;2023-11-22T09:12:58;4.80;99.90
35894;DHT22;21994;48.204;16.516;2023-11-22T09:15:27;4.90;99.90
35894;DHT22;21994;48.204;16.516;2023-11-22T09:17:55;5.10;99.90
35894;DHT22;21994;48.204;16.516;2023-11-22T09:20:21;5.10;99.90
35894;DHT22;21994;48.204;16.516;2023-11-22T09:22:53;5.10;99.90
35894;DHT22;21994;48.204;16.516;2023-11-22T09:25:24;5.30;99.90
35894;DHT22;21994;48.204;16.516;2023-11-22T09:27:52;5.30;99.90
35894;DHT22;21994;48.204;16.516;2023-11-22T09:30:22;5.30;99.90
35894;DHT22;21994;48.204;16.516;2023-11-22T09:33:08;5.30;99.90
35894;DHT22;21994;48.204;16.516;2023-11-22T09:35:36;5.30;99.90
35894;DHT22;21994;48.204;16.516;2023-11-22T09:38:05;5.20;99.90
35894;DHT22;21994;48.204;16.516;2023-11-22T09:40:41;5.20;99.90
35894;DHT22;21994;48.204;16.516;2023-11-22T09:43:12;5.30;99.90
35894;DHT22;21994;48.204;16.516;2023-11-22T09:45:51;5.30;99.90
35894;DHT22;21994;48.204;16.516;2023-11-22T09:48:21;5.40;99.90
35894;DHT22;21994;48.204;16.516;2023-11-22T09:56:13;5.80;99.90
35894;DHT22;21994;48.204;16.516;2023-11-22T09:58:41;6.00;99.90
35894;DHT22;21994;48.204;16.516;2023-11-22T10:01:14;6.00;99.90
35894;DHT22;21994;48.204;16.516;2023-11-22T10:03:40;6.10;99.90
35894;DHT22;21994;48.204;16.516;2023-11-22T10:06:07;6.10;99.90
35894;DHT22;21994;48.204;16.516;2023-11-22T10:08:33;6.00;99.90
35894;DHT22;21994;48.204;16.516;2023-11-22T10:11:01;6.00;99.90
35894;DHT22;21994;48.204;16.516;2023-11-22T10:13:27;6.00;99.90
35894;DHT22;21994;48.204;16.516;2023-11-22T10:15:53;6.00;99.90
35894;DHT22;21994;48.204;16.516;2023-11-22T10:18:20;6.10;99.90
35894;DHT22;21994;48.204;16.516;2023-11-22T10:20:48;6.10;99.90
35894;DHT22;21994;48.204;16.516;2023-11-22T10:23:16;5.90;99.90
35894;DHT22;21994;48.204;16.516;2023-11-22T10:25:51;5.70;99.90
35894;DHT22;21994;48.204;16.516;2023-11-22T10:28:19;5.60;99.90
35894;DHT22;21994;48.204;16.516;2023-11-22T10:30:49;5.60;99.90
35894;DHT22;21994;48.204;16.516;2023-11-22T10:33:18;5.60;99.90
35894;DHT22;21994;48.204;16.516;2023-11-22T10:35:49;5.70;99.90
35894;DHT22;21994;48.204;16.516;2023-11-22T10:38:20;5.90;99.90
35894;DHT22;21994;48.204;16.516;2023-11-22T10:40:47;6.00;99.90
35894;DHT22;21994;48.204;16.516;2023-11-22T10:43:16;6.30;99.90
35894;DHT22;21994;48.204;16.516;2023-11-22T10:45:44;6.50;99.90
35894;DHT22;21994;48.204;16.516;2023-11-22T10:48:17;6.80;99.90
35894;DHT22;21994;48.204;16.516;2023-11-22T10:50:44;6.80;99.90
35894;DHT22;21994;48.204;16.516;2023-11-22T10:53:12;6.80;99.90
35894;DHT22;21994;48.204;16.516;2023-11-22T10:55:44;6.60;99.90
35894;DHT22;21994;48.204;16.516;2023-11-22T10:58:14;6.50;99.90
35894;DHT22;21994;48.204;16.516;2023-11-22T11:00:42;6.20;99.90
35894;DHT22;21994;48.204;16.516;2023-11-22T11:03:14;6.00;99.90
35894;DHT22;21994;48.204;16.516;2023-11-22T11:06:01;5.80;99.90
35894;DHT22;21994;48.204;16.516;2023-11-22T11:08:30;5.70;99.90
35894;DHT22;21994;48.204;16.516;2023-11-22T11:10:57;5.60;99.90
35894;DHT22;21994;48.204;16.516;2023-11-22T11:13:25;5.50;99.90
35894;DHT22;21994;48.204;16.516;2023-11-22T11:15:52;5.50;99.90
35894;DHT22;21994;48.204;16.516;2023-11-22T11:18:19;5.40;99.90
35894;DHT22;21994;48.204;16.516;2023-11-22T11:20:49;5.50;99.90
35894;DHT22;21994;48.204;16.516;2023-11-22T11:23:28;5.50;99.90
35894;DHT22;21994;48.204;16.516;2023-11-22T11:25:59;5.40;99.90
35894;DHT22;21994;48.204;16.516;2023-11-22T11:28:45;5.30;99.90
35894;DHT22;21994;48.204;16.516;2023-11-22T11:31:13;5.40;99.90
35894;DHT22;21994;48.204;16.516;2023-11-22T11:36:26;5.30;99.90
35894;DHT22;21994;48.204;16.516;2023-11-22T11:38:55;5.40;99.90
35894;DHT22;21994;48.204;16.516;2023-11-22T11:41:32;5.50;99.90
35894;DHT22;21994;48.204;16.516;2023-11-22T11:44:00;5.40;99.90
35894;DHT22;21994;48.204;16.516;2023-11-22T11:46:29;5.40;99.90
35894;DHT22;21994;48.204;16.516;2023-11-22T11:48:56;5.30;99.90
35894;DHT22;21994;48.204;16.516;2023-11-22T11:51:27;5.40;99.90
35894;DHT22;21994;48.204;16.516;2023-11-22T11:53:54;5.20;99.90
35894;DHT22;21994;48.204;16.516;2023-11-22T11:56:21;5.10;99.90
35894;DHT22;21994;48.204;16.516;2023-11-22T11:58:50;4.90;99.90
35894;DHT22;21994;48.204;16.516;2023-11-22T12:01:17;4.90;99.90
35894;DHT22;21994;48.204;16.516;2023-11-22T12:03:46;4.90;99.90
35894;DHT22;21994;48.204;16.516;2023-11-22T12:06:17;4.90;99.90
35894;DHT22;21994;48.204;16.516;2023-11-22T12:08:44;4.80;99.90
35894;DHT22;21994;48.204;16.516;2023-11-22T12:11:10;4.70;99.90
35894;DHT22;21994;48.204;16.516;2023-11-22T12:13:38;4.80;99.90
35894;DHT22;21994;48.204;16.516;2023-11-22T12:16:07;4.80;99.90
35894;DHT22;21994;48.204;16.516;2023-11-22T12:18:41;4.80;99.90
35894;DHT22;21994;48.204;16.516;2023-11-22T12:21:08;4.70;99.90
35894;DHT22;21994;48.204;16.516;2023-11-22T12:23:39;4.70;99.90
35894;DHT22;21994;48.204;16.516;2023-11-22T12:26:13;4.70;99.90
35894;DHT22;21994;48.204;16.516;2023-11-22T12:28:41;4.80;99.90
35894;DHT22;21994;48.204;16.516;2023-11-22T12:33:36;4.80;99.90
35894;DHT22;21994;48.204;16.516;2023-11-22T12:36:07;4.90;99.90
35894;DHT22;21994;48.204;16.516;2023-11-22T12:38:38;4.90;99.90
35894;DHT22;21994;48.204;16.516;2023-11-22T12:41:05;4.90;99.90
35894;DHT22;21994;48.204;16.516;2023-11-22T12:43:32;4.90;99.90
35894;DHT22;21994;48.204;16.516;2023-11-22T12:46:04;5.00;99.90
35894;DHT22;21994;48.204;16.516;2023-11-22T12:48:41;4.80;99.90
35894;DHT22;21994;48.204;16.516;2023-11-22T12:51:17;4.90;99.90
35894;DHT22;21994;48.204;16.516;2023-11-22T12:53:47;4.90;99.90
35894;DHT22;21994;48.204;16.516;2023-11-22T12:56:13;4.80;99.90
35894;DHT22;21994;48.204;16.516;2023-11-22T12:58:39;4.90;99.90
35894;DHT22;21994;48.204;16.516;2023-11-22T13:01:05;4.90;99.90
35894;DHT22;21994;48.204;16.516;2023-11-22T13:03:31;5.10;99.90
35894;DHT22;21994;48.204;16.516;2023-11-22T13:05:57;5.10;99.90
35894;DHT22;21994;48.204;16.516;2023-11-22T13:08:23;5.20;99.90
35894;DHT22;21994;48.204;16.516;2023-11-22T13:10:54;5.10;99.90
35894;DHT22;21994;48.204;16.516;2023-11-22T13:13:23;5.30;99.90
35894;DHT22;21994;48.204;16.516;2023-11-22T13:15:51;5.30;99.90
35894;DHT22;21994;48.204;16.516;2023-11-22T13:18:17;5.00;99.90
35894;DHT22;21994;48.204;16.516;2023-11-22T13:20:44;5.10;99.90
35894;DHT22;21994;48.204;16.516;2023-11-22T13:23:11;5.10;99.90
35894;DHT22;21994;48.204;16.516;2023-11-22T13:25:38;5.10;99.90
35894;DHT22;21994;48.204;16.516;2023-11-22T13:28:04;5.10;99.90
35894;DHT22;21994;48.204;16.516;2023-11-22T13:30:31;5.10;99.90
35894;DHT22;21994;48.204;16.516;2023-11-22T13:32:58;5.10;99.90
35894;DHT22;21994;48.204;16.516;2023-11-22T13:35:25;5.00;99.90
35894;DHT22;21994;48.204;16.516;2023-11-22T13:37:57;5.00;99.90
35894;DHT22;21994;48.204;16.516;2023-11-22T13:40:24;5.00;99.90
35894;DHT22;21994;48.204;16.516;2023-11-22T13:42:53;5.00;99.90
35894;DHT22;21994;48.204;16.516;2023-11-22T13:45:19;4.90;99.90
35894;DHT22;21994;48.204;16.516;2023-11-22T13:47:52;4.90;99.90
35894;DHT22;21994;48.204;16.516;2023-11-22T13:50:23;4.80;99.90
35894;DHT22;21994;48.204;16.516;2023-11-22T13:52:52;4.80;99.90
35894;DHT22;21994;48.204;16.516;2023-11-22T13:55:19;4.70;99.90
35894;DHT22;21994;48.204;16.516;2023-11-22T13:57:49;4.70;99.90
35894;DHT22;21994;48.204;16.516;2023-11-22T14:00:17;4.60;99.90
35894;DHT22;21994;48.204;16.516;2023-11-22T14:02:48;4.60;99.90
35894;DHT22;21994;48.204;16.516;2023-11-22T14:05:17;4.60;99.90
35894;DHT22;21994;48.204;16.516;2023-11-22T14:07:43;4.60;99.90
35894;DHT22;21994;48.204;16.516;2023-11-22T14:10:10;4.60;99.90
35894;DHT22;21994;48.204;16.516;2023-11-22T14:12:37;4.50;99.90
35894;DHT22;21994;48.204;16.516;2023-11-22T14:15:04;4.50;99.90
35894;DHT22;21994;48.204;16.516;2023-11-22T14:17:31;4.50;99.90
35894;DHT22;21994;48.204;16.516;2023-11-22T14:19:57;4.50;99.90
35894;DHT22;21994;48.204;16.516;2023-11-22T14:22:24;4.50;99.90
35894;DHT22;21994;48.204;16.516;2023-11-22T14:24:51;4.50;99.90
35894;DHT22;21994;48.204;16.516;2023-11-22T14:27:20;4.50;99.90
35894;DHT22;21994;48.204;16.516;2023-11-22T14:29:46;4.60;99.90
35894;DHT22;21994;48.204;16.516;2023-11-22T14:32:17;4.60;99.90
35894;DHT22;21994;48.204;16.516;2023-11-22T14:34:44;4.60;99.90
35894;DHT22;21994;48.204;16.516;2023-11-22T14:37:11;4.60;99.90
35894;DHT22;21994;48.204;16.516;2023-11-22T14:39:38;4.50;99.90
35894;DHT22;21994;48.204;16.516;2023-11-22T14:42:04;4.50;99.90
35894;DHT22;21994;48.204;16.516;2023-11-22T14:44:34;4.50;99.90
35894;DHT22;21994;48.204;16.516;2023-11-22T14:47:01;4.50;99.90
35894;DHT22;21994;48.204;16.516;2023-11-22T14:49:35;4.40;99.90
35894;DHT22;21994;48.204;16.516;2023-11-22T14:52:04;4.40;99.90
35894;DHT22;21994;48.204;16.516;2023-11-22T14:54:30;4.30;99.90
35894;DHT22;21994;48.204;16.516;2023-11-22T14:56:55;4.30;99.90
35894;DHT22;21994;48.204;16.516;2023-11-22T14:59:26;4.40;99.90
35894;DHT22;21994;48.204;16.516;2023-11-22T15:01:55;4.30;99.90
35894;DHT22;21994;48.204;16.516;2023-11-22T15:04:23;4.40;99.90
35894;DHT22;21994;48.204;16.516;2023-11-22T15:06:49;4.30;99.90
35894;DHT22;21994;48.204;16.516;2023-11-22T15:09:16;4.30;99.90
35894;DHT22;21994;48.204;16.516;2023-11-22T15:11:42;4.30;99.90
35894;DHT22;21994;48.204;16.516;2023-11-22T15:14:09;4.30;99.90
35894;DHT22;21994;48.204;16.516;2023-11-22T15:16:35;4.30;99.90
35894;DHT22;21994;48.204;16.516;2023-11-22T15:19:04;4.30;99.90
35894;DHT22;21994;48.204;16.516;2023-11-22T15:21:32;4.30;99.90
35894;DHT22;21994;48.204;16.516;2023-11-22T15:23:59;4.20;99.90
35894;DHT22;21994;48.204;16.516;2023-11-22T15:26:25;4.20;99.90
35894;DHT22;21994;48.204;16.516;2023-11-22T15:28:52;4.20;99.90
35894;DHT22;21994;48.204;16.516;2023-11-22T15:31:18;4.20;99.90
35894;DHT22;21994;48.204;16.516;2023-11-22T15:33:45;4.10;99.90
35894;DHT22;21994;48.204;16.516;2023-11-22T15:36:11;4.10;99.90
35894;DHT22;21994;48.204;16.516;2023-11-22T15:38:37;4.10;99.90
35894;DHT22;21994;48.204;16.516;2023-11-22T15:41:03;4.10;99.90
35894;DHT22;21994;48.204;16.516;2023-11-22T15:43:30;4.10;99.90